sensor_id;sensor_type;location;lat;lon;timestamp;P1;durP1;ratioP1;P2;durP2;ratioP2
13592;SDS011;6867;50.998;4.250;2023-07-13T00:01:26;7.55;;;2.17;;
13592;SDS011;6867;50.998;4.250;2023-07-13T00:03:52;5.50;;;2.00;;
13592;SDS011;6867;50.998;4.250;2023-07-13T00:06:19;11.95;;;2.00;;
13592;SDS011;6867;50.998;4.250;2023-07-13T00:08:46;5.05;;;1.55;;
13592;SDS011;6867;50.998;4.250;2023-07-13T00:11:15;5.05;;;2.17;;
13592;SDS011;6867;50.998;4.250;2023-07-13T00:13:42;5.32;;;1.63;;
13592;SDS011;6867;50.998;4.250;2023-07-13T00:16:10;8.15;;;1.95;;
13592;SDS011;6867;50.998;4.250;2023-07-13T00:18:39;4.43;;;1.80;;
13592;SDS011;6867;50.998;4.250;2023-07-13T00:21:06;6.97;;;1.98;;
13592;SDS011;6867;50.998;4.250;2023-07-13T00:23:33;5.68;;;1.98;;
13592;SDS011;6867;50.998;4.250;2023-07-13T00:26:00;2.67;;;1.77;;
13592;SDS011;6867;50.998;4.250;2023-07-13T00:28:28;5.15;;;2.17;;
13592;SDS011;6867;50.998;4.250;2023-07-13T00:30:55;9.65;;;2.70;;
13592;SDS011;6867;50.998;4.250;2023-07-13T00:33:22;7.65;;;1.95;;
13592;SDS011;6867;50.998;4.250;2023-07-13T00:35:49;4.07;;;2.05;;
13592;SDS011;6867;50.998;4.250;2023-07-13T00:38:15;4.00;;;2.15;;
13592;SDS011;6867;50.998;4.250;2023-07-13T00:40:42;7.32;;;2.55;;
13592;SDS011;6867;50.998;4.250;2023-07-13T00:43:10;3.88;;;1.75;;
13592;SDS011;6867;50.998;4.250;2023-07-13T00:48:41;4.95;;;1.52;;
13592;SDS011;6867;50.998;4.250;2023-07-13T00:51:11;4.68;;;2.03;;
13592;SDS011;6867;50.998;4.250;2023-07-13T00:53:39;3.78;;;1.77;;
13592;SDS011;6867;50.998;4.250;2023-07-13T00:56:06;4.60;;;1.70;;
13592;SDS011;6867;50.998;4.250;2023-07-13T00:58:33;6.70;;;2.13;;
13592;SDS011;6867;50.998;4.250;2023-07-13T01:01:01;8.18;;;2.20;;
13592;SDS011;6867;50.998;4.250;2023-07-13T01:03:27;8.07;;;2.70;;
13592;SDS011;6867;50.998;4.250;2023-07-13T01:05:56;9.55;;;2.47;;
13592;SDS011;6867;50.998;4.250;2023-07-13T01:08:23;4.07;;;2.15;;
13592;SDS011;6867;50.998;4.250;2023-07-13T01:10:53;3.88;;;1.73;;
13592;SDS011;6867;50.998;4.250;2023-07-13T01:13:20;7.10;;;1.95;;
13592;SDS011;6867;50.998;4.250;2023-07-13T01:15:49;6.00;;;1.88;;
13592;SDS011;6867;50.998;4.250;2023-07-13T01:18:18;4.22;;;1.70;;
13592;SDS011;6867;50.998;4.250;2023-07-13T01:20:52;7.05;;;2.40;;
13592;SDS011;6867;50.998;4.250;2023-07-13T01:23:20;5.88;;;2.10;;
13592;SDS011;6867;50.998;4.250;2023-07-13T01:25:46;7.90;;;2.47;;
13592;SDS011;6867;50.998;4.250;2023-07-13T01:28:13;7.63;;;2.15;;
13592;SDS011;6867;50.998;4.250;2023-07-13T01:30:42;4.20;;;2.25;;
13592;SDS011;6867;50.998;4.250;2023-07-13T01:33:10;8.55;;;2.50;;
13592;SDS011;6867;50.998;4.250;2023-07-13T01:35:38;9.05;;;2.75;;
13592;SDS011;6867;50.998;4.250;2023-07-13T01:38:06;5.15;;;2.03;;
13592;SDS011;6867;50.998;4.250;2023-07-13T01:40:33;5.90;;;2.33;;
13592;SDS011;6867;50.998;4.250;2023-07-13T01:43:01;7.50;;;2.35;;
13592;SDS011;6867;50.998;4.250;2023-07-13T01:45:27;7.90;;;2.35;;
13592;SDS011;6867;50.998;4.250;2023-07-13T01:47:53;4.63;;;1.90;;
13592;SDS011;6867;50.998;4.250;2023-07-13T01:50:20;11.27;;;2.40;;
13592;SDS011;6867;50.998;4.250;2023-07-13T01:52:47;8.43;;;3.35;;
13592;SDS011;6867;50.998;4.250;2023-07-13T01:55:15;8.50;;;2.58;;
13592;SDS011;6867;50.998;4.250;2023-07-13T01:57:42;8.13;;;2.53;;
13592;SDS011;6867;50.998;4.250;2023-07-13T02:00:09;6.97;;;2.33;;
13592;SDS011;6867;50.998;4.250;2023-07-13T02:02:37;9.70;;;2.55;;
13592;SDS011;6867;50.998;4.250;2023-07-13T02:05:04;5.60;;;2.55;;
13592;SDS011;6867;50.998;4.250;2023-07-13T02:07:31;5.35;;;2.03;;
13592;SDS011;6867;50.998;4.250;2023-07-13T02:09:58;12.13;;;2.80;;
13592;SDS011;6867;50.998;4.250;2023-07-13T02:12:26;7.47;;;2.53;;
13592;SDS011;6867;50.998;4.250;2023-07-13T02:14:53;6.63;;;2.30;;
13592;SDS011;6867;50.998;4.250;2023-07-13T02:17:20;7.03;;;2.47;;
13592;SDS011;6867;50.998;4.250;2023-07-13T02:19:46;7.18;;;2.90;;
13592;SDS011;6867;50.998;4.250;2023-07-13T02:22:13;9.13;;;3.33;;
13592;SDS011;6867;50.998;4.250;2023-07-13T02:24:40;10.60;;;2.85;;
13592;SDS011;6867;50.998;4.250;2023-07-13T02:27:06;9.55;;;2.67;;
13592;SDS011;6867;50.998;4.250;2023-07-13T02:29:34;5.32;;;2.47;;
13592;SDS011;6867;50.998;4.250;2023-07-13T02:32:01;6.68;;;2.63;;
13592;SDS011;6867;50.998;4.250;2023-07-13T02:34:28;10.27;;;2.67;;
13592;SDS011;6867;50.998;4.250;2023-07-13T02:36:54;8.82;;;2.63;;
13592;SDS011;6867;50.998;4.250;2023-07-13T02:39:21;7.60;;;2.42;;
13592;SDS011;6867;50.998;4.250;2023-07-13T02:41:48;9.60;;;2.50;;
13592;SDS011;6867;50.998;4.250;2023-07-13T02:44:15;5.40;;;3.10;;
13592;SDS011;6867;50.998;4.250;2023-07-13T02:46:43;9.68;;;2.65;;
13592;SDS011;6867;50.998;4.250;2023-07-13T02:49:09;8.63;;;2.80;;
13592;SDS011;6867;50.998;4.250;2023-07-13T02:51:36;9.13;;;2.42;;
13592;SDS011;6867;50.998;4.250;2023-07-13T02:54:03;5.63;;;2.65;;
13592;SDS011;6867;50.998;4.250;2023-07-13T02:56:31;8.48;;;3.03;;
13592;SDS011;6867;50.998;4.250;2023-07-13T02:58:59;10.88;;;3.10;;
13592;SDS011;6867;50.998;4.250;2023-07-13T03:01:26;8.10;;;3.22;;
13592;SDS011;6867;50.998;4.250;2023-07-13T03:03:54;6.50;;;2.50;;
13592;SDS011;6867;50.998;4.250;2023-07-13T03:06:21;11.27;;;3.00;;
13592;SDS011;6867;50.998;4.250;2023-07-13T03:08:48;4.97;;;2.50;;
13592;SDS011;6867;50.998;4.250;2023-07-13T03:11:16;10.02;;;3.00;;
13592;SDS011;6867;50.998;4.250;2023-07-13T03:13:44;8.32;;;3.15;;
13592;SDS011;6867;50.998;4.250;2023-07-13T03:16:12;7.07;;;3.22;;
13592;SDS011;6867;50.998;4.250;2023-07-13T03:18:40;4.50;;;2.15;;
13592;SDS011;6867;50.998;4.250;2023-07-13T03:21:09;8.10;;;3.00;;
13592;SDS011;6867;50.998;4.250;2023-07-13T03:23:35;10.43;;;2.88;;
13592;SDS011;6867;50.998;4.250;2023-07-13T03:26:03;9.13;;;2.92;;
13592;SDS011;6867;50.998;4.250;2023-07-13T03:28:30;6.95;;;2.53;;
13592;SDS011;6867;50.998;4.250;2023-07-13T03:31:01;7.25;;;3.08;;
13592;SDS011;6867;50.998;4.250;2023-07-13T03:33:29;8.38;;;2.53;;
13592;SDS011;6867;50.998;4.250;2023-07-13T03:35:56;7.18;;;2.53;;
13592;SDS011;6867;50.998;4.250;2023-07-13T03:38:24;5.70;;;2.55;;
13592;SDS011;6867;50.998;4.250;2023-07-13T03:40:51;9.30;;;3.00;;
13592;SDS011;6867;50.998;4.250;2023-07-13T03:43:18;10.15;;;3.20;;
13592;SDS011;6867;50.998;4.250;2023-07-13T03:45:45;7.60;;;2.92;;
13592;SDS011;6867;50.998;4.250;2023-07-13T03:48:12;11.57;;;2.80;;
13592;SDS011;6867;50.998;4.250;2023-07-13T03:50:39;9.10;;;2.97;;
13592;SDS011;6867;50.998;4.250;2023-07-13T03:53:06;9.50;;;2.70;;
13592;SDS011;6867;50.998;4.250;2023-07-13T03:55:34;5.65;;;2.40;;
13592;SDS011;6867;50.998;4.250;2023-07-13T03:58:22;13.23;;;3.65;;
13592;SDS011;6867;50.998;4.250;2023-07-13T04:00:53;11.05;;;3.25;;
13592;SDS011;6867;50.998;4.250;2023-07-13T04:03:19;7.25;;;3.25;;
13592;SDS011;6867;50.998;4.250;2023-07-13T04:05:46;5.43;;;2.72;;
13592;SDS011;6867;50.998;4.250;2023-07-13T04:08:13;6.43;;;3.22;;
13592;SDS011;6867;50.998;4.250;2023-07-13T04:10:41;10.85;;;2.97;;
13592;SDS011;6867;50.998;4.250;2023-07-13T04:13:08;6.93;;;3.08;;
13592;SDS011;6867;50.998;4.250;2023-07-13T04:15:35;10.00;;;2.80;;
13592;SDS011;6867;50.998;4.250;2023-07-13T04:18:02;7.63;;;2.70;;
13592;SDS011;6867;50.998;4.250;2023-07-13T04:20:29;11.10;;;3.20;;
13592;SDS011;6867;50.998;4.250;2023-07-13T04:22:56;12.82;;;3.80;;
13592;SDS011;6867;50.998;4.250;2023-07-13T04:25:23;6.25;;;2.70;;
13592;SDS011;6867;50.998;4.250;2023-07-13T04:27:52;10.05;;;3.13;;
13592;SDS011;6867;50.998;4.250;2023-07-13T04:30:19;10.73;;;2.95;;
13592;SDS011;6867;50.998;4.250;2023-07-13T04:32:46;14.82;;;3.95;;
13592;SDS011;6867;50.998;4.250;2023-07-13T04:35:13;8.82;;;2.53;;
13592;SDS011;6867;50.998;4.250;2023-07-13T04:37:40;9.88;;;3.17;;
13592;SDS011;6867;50.998;4.250;2023-07-13T04:40:07;6.60;;;2.95;;
13592;SDS011;6867;50.998;4.250;2023-07-13T04:42:37;7.40;;;3.10;;
13592;SDS011;6867;50.998;4.250;2023-07-13T04:45:06;10.18;;;3.53;;
13592;SDS011;6867;50.998;4.250;2023-07-13T04:47:33;10.82;;;2.88;;
13592;SDS011;6867;50.998;4.250;2023-07-13T04:50:00;9.02;;;2.92;;
13592;SDS011;6867;50.998;4.250;2023-07-13T04:52:27;16.05;;;3.72;;
13592;SDS011;6867;50.998;4.250;2023-07-13T04:54:54;11.77;;;3.15;;
13592;SDS011;6867;50.998;4.250;2023-07-13T04:57:20;11.25;;;3.15;;
13592;SDS011;6867;50.998;4.250;2023-07-13T04:59:47;18.05;;;3.88;;
13592;SDS011;6867;50.998;4.250;2023-07-13T05:02:15;10.10;;;3.00;;
13592;SDS011;6867;50.998;4.250;2023-07-13T05:04:42;11.13;;;3.45;;
13592;SDS011;6867;50.998;4.250;2023-07-13T05:07:09;6.60;;;2.53;;
13592;SDS011;6867;50.998;4.250;2023-07-13T05:09:36;10.57;;;3.50;;
13592;SDS011;6867;50.998;4.250;2023-07-13T05:12:04;9.13;;;3.25;;
13592;SDS011;6867;50.998;4.250;2023-07-13T05:14:31;12.07;;;3.42;;
13592;SDS011;6867;50.998;4.250;2023-07-13T05:16:58;9.65;;;2.70;;
13592;SDS011;6867;50.998;4.250;2023-07-13T05:19:26;7.32;;;2.75;;
13592;SDS011;6867;50.998;4.250;2023-07-13T05:21:53;7.97;;;2.85;;
13592;SDS011;6867;50.998;4.250;2023-07-13T05:24:19;10.38;;;3.22;;
13592;SDS011;6867;50.998;4.250;2023-07-13T05:26:46;8.07;;;3.33;;
13592;SDS011;6867;50.998;4.250;2023-07-13T05:29:13;13.55;;;2.67;;
13592;SDS011;6867;50.998;4.250;2023-07-13T05:31:39;12.70;;;3.03;;
13592;SDS011;6867;50.998;4.250;2023-07-13T05:34:06;12.52;;;3.17;;
13592;SDS011;6867;50.998;4.250;2023-07-13T05:36:34;10.13;;;2.90;;
13592;SDS011;6867;50.998;4.250;2023-07-13T05:39:02;9.73;;;3.28;;
13592;SDS011;6867;50.998;4.250;2023-07-13T05:41:29;8.60;;;2.88;;
13592;SDS011;6867;50.998;4.250;2023-07-13T05:43:55;10.23;;;3.28;;
13592;SDS011;6867;50.998;4.250;2023-07-13T05:46:22;10.93;;;2.90;;
13592;SDS011;6867;50.998;4.250;2023-07-13T05:48:49;11.00;;;3.30;;
13592;SDS011;6867;50.998;4.250;2023-07-13T05:51:16;13.27;;;2.67;;
13592;SDS011;6867;50.998;4.250;2023-07-13T05:53:44;9.75;;;3.58;;
13592;SDS011;6867;50.998;4.250;2023-07-13T05:56:10;9.23;;;3.20;;
13592;SDS011;6867;50.998;4.250;2023-07-13T05:58:37;11.77;;;3.28;;
13592;SDS011;6867;50.998;4.250;2023-07-13T06:01:05;14.35;;;4.10;;
13592;SDS011;6867;50.998;4.250;2023-07-13T06:03:33;8.95;;;2.83;;
13592;SDS011;6867;50.998;4.250;2023-07-13T06:06:00;9.32;;;3.08;;
13592;SDS011;6867;50.998;4.250;2023-07-13T06:08:27;10.77;;;3.35;;
13592;SDS011;6867;50.998;4.250;2023-07-13T06:10:55;9.32;;;3.40;;
13592;SDS011;6867;50.998;4.250;2023-07-13T06:13:28;10.65;;;2.67;;
13592;SDS011;6867;50.998;4.250;2023-07-13T06:15:55;10.52;;;3.10;;
13592;SDS011;6867;50.998;4.250;2023-07-13T06:18:21;14.38;;;3.20;;
13592;SDS011;6867;50.998;4.250;2023-07-13T06:20:48;10.48;;;3.10;;
13592;SDS011;6867;50.998;4.250;2023-07-13T06:23:15;11.27;;;3.30;;
13592;SDS011;6867;50.998;4.250;2023-07-13T06:25:41;7.75;;;3.13;;
13592;SDS011;6867;50.998;4.250;2023-07-13T06:28:10;10.50;;;3.03;;
13592;SDS011;6867;50.998;4.250;2023-07-13T06:30:37;7.25;;;2.65;;
13592;SDS011;6867;50.998;4.250;2023-07-13T06:33:04;11.10;;;3.13;;
13592;SDS011;6867;50.998;4.250;2023-07-13T06:35:31;7.10;;;2.65;;
13592;SDS011;6867;50.998;4.250;2023-07-13T06:37:58;7.28;;;2.60;;
13592;SDS011;6867;50.998;4.250;2023-07-13T06:40:25;9.75;;;3.70;;
13592;SDS011;6867;50.998;4.250;2023-07-13T06:42:54;7.78;;;2.90;;
13592;SDS011;6867;50.998;4.250;2023-07-13T06:45:22;7.93;;;2.50;;
13592;SDS011;6867;50.998;4.250;2023-07-13T06:47:48;10.35;;;3.22;;
13592;SDS011;6867;50.998;4.250;2023-07-13T06:50:15;7.03;;;3.38;;
13592;SDS011;6867;50.998;4.250;2023-07-13T06:52:42;12.65;;;3.17;;
13592;SDS011;6867;50.998;4.250;2023-07-13T06:55:08;8.05;;;3.35;;
13592;SDS011;6867;50.998;4.250;2023-07-13T06:57:35;9.50;;;2.90;;
13592;SDS011;6867;50.998;4.250;2023-07-13T07:00:02;10.82;;;3.17;;
13592;SDS011;6867;50.998;4.250;2023-07-13T07:02:33;13.90;;;3.05;;
13592;SDS011;6867;50.998;4.250;2023-07-13T07:04:59;10.82;;;3.53;;
13592;SDS011;6867;50.998;4.250;2023-07-13T07:07:26;8.25;;;3.50;;
13592;SDS011;6867;50.998;4.250;2023-07-13T07:09:53;11.77;;;3.05;;
13592;SDS011;6867;50.998;4.250;2023-07-13T07:12:19;12.93;;;3.78;;
13592;SDS011;6867;50.998;4.250;2023-07-13T07:14:46;10.13;;;3.92;;
13592;SDS011;6867;50.998;4.250;2023-07-13T07:17:13;10.65;;;3.35;;
13592;SDS011;6867;50.998;4.250;2023-07-13T07:19:41;13.38;;;2.92;;
13592;SDS011;6867;50.998;4.250;2023-07-13T07:22:08;10.02;;;3.38;;
13592;SDS011;6867;50.998;4.250;2023-07-13T07:24:34;9.50;;;3.42;;
13592;SDS011;6867;50.998;4.250;2023-07-13T07:27:01;11.50;;;2.85;;
13592;SDS011;6867;50.998;4.250;2023-07-13T07:29:28;9.23;;;3.33;;
13592;SDS011;6867;50.998;4.250;2023-07-13T07:31:54;10.32;;;3.67;;
13592;SDS011;6867;50.998;4.250;2023-07-13T07:34:21;7.68;;;3.03;;
13592;SDS011;6867;50.998;4.250;2023-07-13T07:36:49;6.38;;;3.00;;
13592;SDS011;6867;50.998;4.250;2023-07-13T07:39:16;14.55;;;3.75;;
13592;SDS011;6867;50.998;4.250;2023-07-13T07:41:42;10.00;;;3.20;;
13592;SDS011;6867;50.998;4.250;2023-07-13T07:44:09;18.00;;;3.92;;
13592;SDS011;6867;50.998;4.250;2023-07-13T07:46:36;7.05;;;3.55;;
13592;SDS011;6867;50.998;4.250;2023-07-13T07:49:03;9.50;;;3.25;;
13592;SDS011;6867;50.998;4.250;2023-07-13T07:51:29;9.38;;;3.45;;
13592;SDS011;6867;50.998;4.250;2023-07-13T07:53:57;7.00;;;2.83;;
13592;SDS011;6867;50.998;4.250;2023-07-13T07:56:24;9.38;;;3.33;;
13592;SDS011;6867;50.998;4.250;2023-07-13T07:58:51;8.00;;;3.33;;
13592;SDS011;6867;50.998;4.250;2023-07-13T08:01:18;6.97;;;3.55;;
13592;SDS011;6867;50.998;4.250;2023-07-13T08:03:44;10.30;;;3.20;;
13592;SDS011;6867;50.998;4.250;2023-07-13T08:06:11;11.23;;;3.13;;
13592;SDS011;6867;50.998;4.250;2023-07-13T08:08:38;7.50;;;2.88;;
13592;SDS011;6867;50.998;4.250;2023-07-13T08:11:06;7.55;;;2.63;;
13592;SDS011;6867;50.998;4.250;2023-07-13T08:13:36;7.45;;;2.67;;
13592;SDS011;6867;50.998;4.250;2023-07-13T08:16:03;6.15;;;2.40;;
13592;SDS011;6867;50.998;4.250;2023-07-13T08:18:31;7.28;;;2.67;;
13592;SDS011;6867;50.998;4.250;2023-07-13T08:20:57;15.18;;;3.45;;
13592;SDS011;6867;50.998;4.250;2023-07-13T08:23:24;5.72;;;2.60;;
13592;SDS011;6867;50.998;4.250;2023-07-13T08:25:51;14.73;;;3.13;;
13592;SDS011;6867;50.998;4.250;2023-07-13T08:28:20;6.30;;;2.90;;
13592;SDS011;6867;50.998;4.250;2023-07-13T08:30:47;9.00;;;2.38;;
13592;SDS011;6867;50.998;4.250;2023-07-13T08:33:14;10.95;;;2.75;;
13592;SDS011;6867;50.998;4.250;2023-07-13T08:35:41;5.95;;;2.13;;
13592;SDS011;6867;50.998;4.250;2023-07-13T08:38:07;9.95;;;2.58;;
13592;SDS011;6867;50.998;4.250;2023-07-13T08:40:34;6.35;;;2.00;;
13592;SDS011;6867;50.998;4.250;2023-07-13T08:43:01;6.95;;;2.42;;
13592;SDS011;6867;50.998;4.250;2023-07-13T08:45:32;7.88;;;2.70;;
13592;SDS011;6867;50.998;4.250;2023-07-13T08:48:08;7.65;;;2.55;;
13592;SDS011;6867;50.998;4.250;2023-07-13T08:50:42;3.75;;;2.35;;
13592;SDS011;6867;50.998;4.250;2023-07-13T08:53:15;7.72;;;2.58;;
13592;SDS011;6867;50.998;4.250;2023-07-13T08:55:44;4.93;;;2.30;;
13592;SDS011;6867;50.998;4.250;2023-07-13T08:58:11;6.32;;;2.35;;
13592;SDS011;6867;50.998;4.250;2023-07-13T09:00:43;6.32;;;2.22;;
13592;SDS011;6867;50.998;4.250;2023-07-13T09:03:18;8.55;;;2.70;;
13592;SDS011;6867;50.998;4.250;2023-07-13T09:05:50;7.47;;;2.15;;
13592;SDS011;6867;50.998;4.250;2023-07-13T09:08:25;6.30;;;2.00;;
13592;SDS011;6867;50.998;4.250;2023-07-13T09:11:03;7.93;;;2.53;;
13592;SDS011;6867;50.998;4.250;2023-07-13T09:13:43;6.22;;;2.22;;
13592;SDS011;6867;50.998;4.250;2023-07-13T09:16:21;5.70;;;2.35;;
13592;SDS011;6867;50.998;4.250;2023-07-13T09:18:49;5.10;;;2.50;;
13592;SDS011;6867;50.998;4.250;2023-07-13T09:21:18;10.02;;;2.40;;
13592;SDS011;6867;50.998;4.250;2023-07-13T09:23:49;7.10;;;3.13;;
13592;SDS011;6867;50.998;4.250;2023-07-13T09:26:21;5.70;;;2.20;;
13592;SDS011;6867;50.998;4.250;2023-07-13T09:28:51;8.00;;;2.25;;
13592;SDS011;6867;50.998;4.250;2023-07-13T09:31:26;10.18;;;2.45;;
13592;SDS011;6867;50.998;4.250;2023-07-13T09:34:00;6.97;;;2.28;;
13592;SDS011;6867;50.998;4.250;2023-07-13T09:36:28;5.85;;;2.20;;
13592;SDS011;6867;50.998;4.250;2023-07-13T09:38:58;6.90;;;2.10;;
13592;SDS011;6867;50.998;4.250;2023-07-13T09:41:31;10.57;;;2.65;;
13592;SDS011;6867;50.998;4.250;2023-07-13T09:44:07;7.10;;;2.13;;
13592;SDS011;6867;50.998;4.250;2023-07-13T09:46:38;6.25;;;2.05;;
13592;SDS011;6867;50.998;4.250;2023-07-13T09:49:07;4.10;;;1.95;;
13592;SDS011;6867;50.998;4.250;2023-07-13T09:51:36;7.35;;;2.10;;
13592;SDS011;6867;50.998;4.250;2023-07-13T09:54:03;4.25;;;2.08;;
13592;SDS011;6867;50.998;4.250;2023-07-13T09:56:30;3.00;;;1.63;;
13592;SDS011;6867;50.998;4.250;2023-07-13T09:58:57;2.70;;;1.83;;
13592;SDS011;6867;50.998;4.250;2023-07-13T10:01:34;6.22;;;2.30;;
13592;SDS011;6867;50.998;4.250;2023-07-13T10:04:03;7.18;;;2.10;;
13592;SDS011;6867;50.998;4.250;2023-07-13T10:06:37;4.80;;;1.95;;
13592;SDS011;6867;50.998;4.250;2023-07-13T10:09:06;3.08;;;1.60;;
13592;SDS011;6867;50.998;4.250;2023-07-13T10:11:35;7.30;;;2.15;;
13592;SDS011;6867;50.998;4.250;2023-07-13T10:14:03;4.97;;;1.80;;
13592;SDS011;6867;50.998;4.250;2023-07-13T10:16:37;8.20;;;2.25;;
13592;SDS011;6867;50.998;4.250;2023-07-13T10:19:11;3.17;;;1.95;;
13592;SDS011;6867;50.998;4.250;2023-07-13T10:21:43;4.13;;;1.73;;
13592;SDS011;6867;50.998;4.250;2023-07-13T10:24:17;7.88;;;2.25;;
13592;SDS011;6867;50.998;4.250;2023-07-13T10:26:48;4.32;;;2.28;;
13592;SDS011;6867;50.998;4.250;2023-07-13T10:29:29;6.13;;;2.00;;
13592;SDS011;6867;50.998;4.250;2023-07-13T10:32:02;6.65;;;2.30;;
13592;SDS011;6867;50.998;4.250;2023-07-13T10:34:36;6.90;;;2.00;;
13592;SDS011;6867;50.998;4.250;2023-07-13T10:37:04;3.85;;;1.90;;
13592;SDS011;6867;50.998;4.250;2023-07-13T10:39:33;5.18;;;1.92;;
13592;SDS011;6867;50.998;4.250;2023-07-13T10:42:02;6.03;;;2.28;;
13592;SDS011;6867;50.998;4.250;2023-07-13T10:44:32;6.43;;;2.33;;
13592;SDS011;6867;50.998;4.250;2023-07-13T10:47:00;5.85;;;2.22;;
13592;SDS011;6867;50.998;4.250;2023-07-13T10:49:31;3.20;;;1.77;;
13592;SDS011;6867;50.998;4.250;2023-07-13T10:52:01;5.85;;;2.00;;
13592;SDS011;6867;50.998;4.250;2023-07-13T10:54:30;6.05;;;2.17;;
13592;SDS011;6867;50.998;4.250;2023-07-13T10:57:16;4.90;;;1.83;;
13592;SDS011;6867;50.998;4.250;2023-07-13T10:59:48;4.53;;;2.13;;
13592;SDS011;6867;50.998;4.250;2023-07-13T11:02:35;8.00;;;2.80;;
13592;SDS011;6867;50.998;4.250;2023-07-13T11:05:13;4.72;;;2.40;;
13592;SDS011;6867;50.998;4.250;2023-07-13T11:07:55;7.40;;;2.45;;
13592;SDS011;6867;50.998;4.250;2023-07-13T11:10:45;9.40;;;2.60;;
13592;SDS011;6867;50.998;4.250;2023-07-13T11:16:36;3.42;;;2.17;;
13592;SDS011;6867;50.998;4.250;2023-07-13T11:19:22;4.25;;;2.13;;
13592;SDS011;6867;50.998;4.250;2023-07-13T11:22:09;7.20;;;2.03;;
13592;SDS011;6867;50.998;4.250;2023-07-13T11:24:49;4.05;;;1.75;;
13592;SDS011;6867;50.998;4.250;2023-07-13T11:27:33;7.53;;;2.10;;
13592;SDS011;6867;50.998;4.250;2023-07-13T11:30:08;5.95;;;1.98;;
13592;SDS011;6867;50.998;4.250;2023-07-13T11:32:46;6.60;;;1.73;;
13592;SDS011;6867;50.998;4.250;2023-07-13T11:35:18;4.32;;;1.65;;
13592;SDS011;6867;50.998;4.250;2023-07-13T11:37:48;4.43;;;1.92;;
13592;SDS011;6867;50.998;4.250;2023-07-13T11:40:17;6.20;;;1.70;;
13592;SDS011;6867;50.998;4.250;2023-07-13T11:42:44;4.28;;;2.00;;
13592;SDS011;6867;50.998;4.250;2023-07-13T11:45:18;5.82;;;2.30;;
13592;SDS011;6867;50.998;4.250;2023-07-13T11:47:48;5.13;;;2.10;;
13592;SDS011;6867;50.998;4.250;2023-07-13T11:50:19;4.60;;;1.95;;
13592;SDS011;6867;50.998;4.250;2023-07-13T11:52:48;4.53;;;1.77;;
13592;SDS011;6867;50.998;4.250;2023-07-13T11:55:18;4.28;;;2.30;;
13592;SDS011;6867;50.998;4.250;2023-07-13T11:57:47;8.18;;;2.90;;
13592;SDS011;6867;50.998;4.250;2023-07-13T12:00:17;3.53;;;2.20;;
13592;SDS011;6867;50.998;4.250;2023-07-13T12:02:47;2.95;;;1.90;;
13592;SDS011;6867;50.998;4.250;2023-07-13T12:05:17;3.60;;;2.33;;
13592;SDS011;6867;50.998;4.250;2023-07-13T12:07:45;4.57;;;2.67;;
13592;SDS011;6867;50.998;4.250;2023-07-13T12:10:17;5.43;;;2.80;;
13592;SDS011;6867;50.998;4.250;2023-07-13T12:12:48;5.25;;;2.67;;
13592;SDS011;6867;50.998;4.250;2023-07-13T12:15:18;2.92;;;2.60;;
13592;SDS011;6867;50.998;4.250;2023-07-13T12:17:47;4.55;;;2.90;;
13592;SDS011;6867;50.998;4.250;2023-07-13T12:20:19;3.58;;;2.53;;
13592;SDS011;6867;50.998;4.250;2023-07-13T12:22:49;7.40;;;3.05;;
13592;SDS011;6867;50.998;4.250;2023-07-13T12:25:17;6.38;;;2.80;;
13592;SDS011;6867;50.998;4.250;2023-07-13T12:27:47;6.43;;;2.60;;
13592;SDS011;6867;50.998;4.250;2023-07-13T12:30:22;3.55;;;2.20;;
13592;SDS011;6867;50.998;4.250;2023-07-13T12:32:58;4.30;;;2.15;;
13592;SDS011;6867;50.998;4.250;2023-07-13T12:35:28;3.85;;;1.80;;
13592;SDS011;6867;50.998;4.250;2023-07-13T12:38:00;3.50;;;1.90;;
13592;SDS011;6867;50.998;4.250;2023-07-13T12:40:28;4.32;;;1.92;;
13592;SDS011;6867;50.998;4.250;2023-07-13T12:43:01;5.50;;;2.20;;
13592;SDS011;6867;50.998;4.250;2023-07-13T12:45:29;4.70;;;1.80;;
13592;SDS011;6867;50.998;4.250;2023-07-13T12:47:57;3.88;;;1.80;;
13592;SDS011;6867;50.998;4.250;2023-07-13T12:50:30;3.08;;;1.80;;
13592;SDS011;6867;50.998;4.250;2023-07-13T12:53:03;2.90;;;1.45;;
13592;SDS011;6867;50.998;4.250;2023-07-13T12:55:39;5.20;;;1.75;;
13592;SDS011;6867;50.998;4.250;2023-07-13T12:58:13;3.85;;;1.55;;
13592;SDS011;6867;50.998;4.250;2023-07-13T13:00:54;4.93;;;1.95;;
13592;SDS011;6867;50.998;4.250;2023-07-13T13:03:24;3.58;;;1.63;;
13592;SDS011;6867;50.998;4.250;2023-07-13T13:05:58;2.97;;;1.48;;
13592;SDS011;6867;50.998;4.250;2023-07-13T13:08:29;5.45;;;1.83;;
13592;SDS011;6867;50.998;4.250;2023-07-13T13:10:56;3.47;;;1.55;;
13592;SDS011;6867;50.998;4.250;2023-07-13T13:13:24;5.55;;;1.80;;
13592;SDS011;6867;50.998;4.250;2023-07-13T13:15:51;3.20;;;1.50;;
13592;SDS011;6867;50.998;4.250;2023-07-13T13:18:18;4.25;;;1.63;;
13592;SDS011;6867;50.998;4.250;2023-07-13T13:20:47;3.67;;;1.45;;
13592;SDS011;6867;50.998;4.250;2023-07-13T13:23:14;3.60;;;1.80;;
13592;SDS011;6867;50.998;4.250;2023-07-13T13:25:43;5.95;;;1.90;;
13592;SDS011;6867;50.998;4.250;2023-07-13T13:28:14;5.68;;;2.28;;
13592;SDS011;6867;50.998;4.250;2023-07-13T13:30:44;3.08;;;1.92;;
13592;SDS011;6867;50.998;4.250;2023-07-13T13:33:12;3.70;;;1.70;;
13592;SDS011;6867;50.998;4.250;2023-07-13T13:35:41;1.83;;;1.58;;
13592;SDS011;6867;50.998;4.250;2023-07-13T13:38:12;2.83;;;1.70;;
13592;SDS011;6867;50.998;4.250;2023-07-13T13:40:40;3.13;;;1.38;;
13592;SDS011;6867;50.998;4.250;2023-07-13T13:43:14;2.33;;;1.33;;
13592;SDS011;6867;50.998;4.250;2023-07-13T13:45:43;2.83;;;1.70;;
13592;SDS011;6867;50.998;4.250;2023-07-13T13:48:15;1.58;;;1.17;;
13592;SDS011;6867;50.998;4.250;2023-07-13T13:50:44;2.63;;;1.50;;
13592;SDS011;6867;50.998;4.250;2023-07-13T13:53:12;2.45;;;1.70;;
13592;SDS011;6867;50.998;4.250;2023-07-13T13:55:39;7.70;;;2.55;;
13592;SDS011;6867;50.998;4.250;2023-07-13T13:58:07;4.85;;;1.60;;
13592;SDS011;6867;50.998;4.250;2023-07-13T14:00:34;3.65;;;1.63;;
13592;SDS011;6867;50.998;4.250;2023-07-13T14:03:03;4.80;;;1.88;;
13592;SDS011;6867;50.998;4.250;2023-07-13T14:05:32;5.28;;;1.73;;
13592;SDS011;6867;50.998;4.250;2023-07-13T14:07:58;3.85;;;1.45;;
13592;SDS011;6867;50.998;4.250;2023-07-13T14:10:25;3.17;;;1.50;;
13592;SDS011;6867;50.998;4.250;2023-07-13T14:12:53;2.78;;;1.85;;
13592;SDS011;6867;50.998;4.250;2023-07-13T14:15:23;4.30;;;2.20;;
13592;SDS011;6867;50.998;4.250;2023-07-13T14:17:52;2.40;;;1.70;;
13592;SDS011;6867;50.998;4.250;2023-07-13T14:20:21;2.67;;;1.63;;
13592;SDS011;6867;50.998;4.250;2023-07-13T14:22:49;4.20;;;2.30;;
13592;SDS011;6867;50.998;4.250;2023-07-13T14:25:16;3.70;;;2.13;;
13592;SDS011;6867;50.998;4.250;2023-07-13T14:27:44;4.15;;;1.85;;
13592;SDS011;6867;50.998;4.250;2023-07-13T14:30:13;4.30;;;1.88;;
13592;SDS011;6867;50.998;4.250;2023-07-13T14:32:41;3.90;;;1.83;;
13592;SDS011;6867;50.998;4.250;2023-07-13T14:35:10;3.92;;;1.70;;
13592;SDS011;6867;50.998;4.250;2023-07-13T14:37:39;5.32;;;1.52;;
13592;SDS011;6867;50.998;4.250;2023-07-13T14:40:12;4.15;;;1.80;;
13592;SDS011;6867;50.998;4.250;2023-07-13T14:42:39;3.97;;;1.80;;
13592;SDS011;6867;50.998;4.250;2023-07-13T14:45:11;3.53;;;1.95;;
13592;SDS011;6867;50.998;4.250;2023-07-13T14:47:39;3.80;;;1.77;;
13592;SDS011;6867;50.998;4.250;2023-07-13T14:50:08;2.28;;;1.67;;
13592;SDS011;6867;50.998;4.250;2023-07-13T14:52:42;3.85;;;1.90;;
13592;SDS011;6867;50.998;4.250;2023-07-13T14:55:10;4.20;;;1.83;;
13592;SDS011;6867;50.998;4.250;2023-07-13T14:57:38;4.25;;;1.88;;
13592;SDS011;6867;50.998;4.250;2023-07-13T15:00:05;5.25;;;1.80;;
13592;SDS011;6867;50.998;4.250;2023-07-13T15:02:40;3.92;;;1.98;;
13592;SDS011;6867;50.998;4.250;2023-07-13T15:05:15;3.30;;;1.65;;
13592;SDS011;6867;50.998;4.250;2023-07-13T15:07:46;1.88;;;1.40;;
13592;SDS011;6867;50.998;4.250;2023-07-13T15:10:14;1.80;;;1.40;;
13592;SDS011;6867;50.998;4.250;2023-07-13T15:12:41;3.58;;;1.80;;
13592;SDS011;6867;50.998;4.250;2023-07-13T15:15:08;2.63;;;1.60;;